KGUS/GUS METAR and TAF weather

Enter ICAO airport designator
Station Type Date Time Source
KGUS METAR 2019/12/10 05:56 UTC NOAA

KGUS 100556Z AUTO 29022G25KT 10SM OVC010 M02/M02 A2981 RMK AO2 PK WND 27028/43 SLP103 60000 T10211022 10090 21021 52043 $


Station Type Date Time Source
KGUS Decoded METAR 2019/12/10 05:56 UTC NOAA

Grissom Air Force Base / Peru, IN, United States (KGUS) 40-39N 086-09W
Dec 10, 2019 - 12:56 AM EST / 2019.12.10 0556 UTC
Wind: from the WNW (290 degrees) at 25 MPH (22 KT) gusting to 29 MPH (25 KT):0
Visibility: 10 mile(s):0
Sky conditions: overcast
Temperature: 28.2 F (-2.1 C)
Windchill: 14 F (-10 C):1
Dew Point: 28.0 F (-2.2 C)
Relative Humidity: 99%
Pressure (altimeter): 29.81 in. Hg (1009 hPa)
Pressure tendency: 0.13 inches (4.3 hPa) higher than three hours ago
ob: KGUS 100556Z AUTO 29022G25KT 10SM OVC010 M02/M02 A2981 RMK AO2 PK WND 27028/43 SLP103 60000 T10211022 10090 21021 52043
cycle: 6

Station Type Date Time Source
KGUS TAF 2019/12/10 23:00 UTC NOAA

TAF
AMD KGUS 092351Z 0923/1101 23009KT 8000 -DZ BR OVC006 510053 QNH2950INS
TEMPO 0923/1011 27015G25KT
BECMG 1010/1011 29015G20KT 9999 NSW BKN020 QNH2994INS
BECMG 1023/1024 28006KT 9999 SCT030 QNH3022INS TX10/0923Z TNM03/1013Z

Example: see airport list